DLH3NW EBBR-EDDM
Flight info
| Callsign | DLH3NW |
|---|---|
| Flight time | 0h 54m |
| Altitude | 35000 |
| Route | SOPOK Y863 ROPUV L607 EMGOD DCT MOVUM T109 HAREM T104 ROKIL ROKIL1B |
| Aircraft | A320/M-SDE3FGHIRWY/LB1 |
Departure
| Time | 2026-05-04 09:21 |
|---|---|
| Airport | Brussels Airport (EBBR) |
Arrival
| Time | 2026-05-04 10:16 |
|---|---|
| Airport | Munich Airport (EDDM) |
| Time | Latitude | Longitude | Altitude | Speed | Heading |
|---|---|---|---|---|---|
| 2026-05-04 09:03 | 50.90398 | 4.48990 | 117 ft | 0 kts | 335° |
| 2026-05-04 09:14 | 50.90378 | 4.49005 | 121 ft | 4 kts | 333° |
| 2026-05-04 09:14 | 50.90354 | 4.49024 | 119 ft | 4 kts | 334° |
| 2026-05-04 09:14 | 50.90330 | 4.49038 | 120 ft | 4 kts | 5° |
| 2026-05-04 09:15 | 50.90318 | 4.49033 | 121 ft | 1 kts | 65° |
| 2026-05-04 09:17 | 50.90351 | 4.49150 | 124 ft | 6 kts | 66° |
| 2026-05-04 09:18 | 50.90386 | 4.49271 | 122 ft | 15 kts | 65° |
| 2026-05-04 09:18 | 50.90429 | 4.49430 | 121 ft | 16 kts | 66° |
| 2026-05-04 09:18 | 50.90485 | 4.49585 | 124 ft | 16 kts | 46° |
| 2026-05-04 09:18 | 50.90590 | 4.49648 | 121 ft | 16 kts | 14° |
| 2026-05-04 09:19 | 50.90697 | 4.49691 | 124 ft | 16 kts | 14° |
| 2026-05-04 09:19 | 50.90806 | 4.49735 | 119 ft | 17 kts | 14° |
| 2026-05-04 09:19 | 50.90931 | 4.49798 | 120 ft | 20 kts | 30° |
| 2026-05-04 09:19 | 50.91046 | 4.49923 | 117 ft | 15 kts | 25° |
| 2026-05-04 09:20 | 50.91128 | 4.49933 | 118 ft | 8 kts | 330° |
| 2026-05-04 09:20 | 50.91130 | 4.49856 | 118 ft | 10 kts | 247° |
| 2026-05-04 09:20 | 50.91030 | 4.49508 | 119 ft | 71 kts | 245° |
| 2026-05-04 09:20 | 50.90728 | 4.48465 | 120 ft | 134 kts | 245° |
| 2026-05-04 09:21 | 50.90281 | 4.46914 | 370 ft | 162 kts | 244° |
| 2026-05-04 09:21 | 50.89802 | 4.45286 | 1045 ft | 168 kts | 245° |
| 2026-05-04 09:21 | 50.89323 | 4.43606 | 1842 ft | 166 kts | 243° |
| 2026-05-04 09:21 | 50.88560 | 4.42299 | 2529 ft | 165 kts | 201° |
| 2026-05-04 09:22 | 50.87436 | 4.42151 | 3164 ft | 166 kts | 164° |
| 2026-05-04 09:22 | 50.86440 | 4.43123 | 3616 ft | 180 kts | 132° |
| 2026-05-04 09:22 | 50.85570 | 4.44728 | 3914 ft | 204 kts | 130° |
| 2026-05-04 09:22 | 50.84603 | 4.46527 | 4258 ft | 224 kts | 131° |
| 2026-05-04 09:23 | 50.83540 | 4.48492 | 4696 ft | 243 kts | 131° |
| 2026-05-04 09:23 | 50.82438 | 4.50522 | 5417 ft | 249 kts | 131° |
| 2026-05-04 09:23 | 50.81300 | 4.52607 | 6240 ft | 252 kts | 131° |
| 2026-05-04 09:23 | 50.80138 | 4.54729 | 6956 ft | 261 kts | 131° |
| 2026-05-04 09:25 | 50.70571 | 4.72056 | 11274 ft | 348 kts | 129° |
| 2026-05-04 09:25 | 50.69290 | 4.75279 | 12005 ft | 355 kts | 117° |
| 2026-05-04 09:26 | 50.68405 | 4.78955 | 12797 ft | 361 kts | 108° |
| 2026-05-04 09:26 | 50.67673 | 4.82755 | 13594 ft | 364 kts | 109° |
| 2026-05-04 09:26 | 50.66926 | 4.86586 | 14291 ft | 367 kts | 109° |
| 2026-05-04 09:26 | 50.66164 | 4.90453 | 14965 ft | 371 kts | 109° |
| 2026-05-04 09:27 | 50.65396 | 4.94342 | 15638 ft | 374 kts | 109° |
| 2026-05-04 09:27 | 50.64620 | 4.98277 | 16304 ft | 377 kts | 109° |
| 2026-05-04 09:27 | 50.63839 | 5.02236 | 16974 ft | 380 kts | 109° |
| 2026-05-04 09:27 | 50.63060 | 5.06179 | 17633 ft | 384 kts | 109° |
| 2026-05-04 09:28 | 50.62261 | 5.10203 | 18285 ft | 387 kts | 109° |
| 2026-05-04 09:28 | 50.61453 | 5.14259 | 18850 ft | 390 kts | 109° |
| 2026-05-04 09:28 | 50.60634 | 5.18351 | 19407 ft | 394 kts | 110° |
| 2026-05-04 09:28 | 50.59804 | 5.22482 | 19978 ft | 397 kts | 110° |
| 2026-05-04 09:29 | 50.58874 | 5.26581 | 20530 ft | 398 kts | 118° |
| 2026-05-04 09:29 | 50.57399 | 5.30244 | 21082 ft | 396 kts | 134° |
| 2026-05-04 09:29 | 50.55477 | 5.33333 | 21637 ft | 396 kts | 139° |
| 2026-05-04 09:29 | 50.53485 | 5.36348 | 22207 ft | 399 kts | 140° |
| 2026-05-04 09:30 | 50.51458 | 5.39340 | 22732 ft | 401 kts | 141° |
| 2026-05-04 09:30 | 50.49434 | 5.42284 | 23255 ft | 403 kts | 141° |
| 2026-05-04 09:30 | 50.47363 | 5.45280 | 23729 ft | 406 kts | 141° |
| 2026-05-04 09:30 | 50.45280 | 5.48298 | 24140 ft | 409 kts | 142° |
| 2026-05-04 09:31 | 50.43184 | 5.51340 | 24539 ft | 412 kts | 142° |
| 2026-05-04 09:31 | 50.41077 | 5.54410 | 24930 ft | 414 kts | 142° |
| 2026-05-04 09:31 | 50.38961 | 5.57501 | 25315 ft | 417 kts | 142° |
| 2026-05-04 09:31 | 50.36832 | 5.60607 | 25686 ft | 420 kts | 142° |
| 2026-05-04 09:32 | 50.34717 | 5.63687 | 26046 ft | 422 kts | 142° |
| 2026-05-04 09:32 | 50.32560 | 5.66823 | 26413 ft | 425 kts | 142° |
| 2026-05-04 09:34 | 50.22221 | 5.95583 | 28753 ft | 465 kts | 110° |
| 2026-05-04 09:34 | 50.21393 | 6.00480 | 29047 ft | 468 kts | 110° |
| 2026-05-04 09:34 | 50.20555 | 6.05394 | 29327 ft | 470 kts | 110° |
| 2026-05-04 09:34 | 50.19721 | 6.10268 | 29590 ft | 472 kts | 110° |
| 2026-05-04 09:35 | 50.18922 | 6.15259 | 29855 ft | 478 kts | 106° |
| 2026-05-04 09:35 | 50.18520 | 6.20445 | 30101 ft | 486 kts | 97° |
| 2026-05-04 09:35 | 50.18607 | 6.25749 | 30313 ft | 493 kts | 88° |
| 2026-05-04 09:35 | 50.18947 | 6.31070 | 30580 ft | 493 kts | 88° |
| 2026-05-04 09:37 | 50.21206 | 6.68191 | 32681 ft | 489 kts | 88° |
| 2026-05-04 09:37 | 50.21516 | 6.73401 | 33001 ft | 489 kts | 88° |
| 2026-05-04 09:38 | 50.21829 | 6.78678 | 33318 ft | 488 kts | 88° |
| 2026-05-04 09:38 | 50.22097 | 6.83944 | 33622 ft | 485 kts | 92° |
| 2026-05-04 09:38 | 50.21985 | 6.89180 | 33931 ft | 481 kts | 99° |
| 2026-05-04 09:38 | 50.21715 | 6.94384 | 34202 ft | 480 kts | 99° |
| 2026-05-04 09:39 | 50.21444 | 6.99580 | 34476 ft | 480 kts | 99° |
| 2026-05-04 09:39 | 50.21168 | 7.04766 | 34752 ft | 479 kts | 99° |
| 2026-05-04 09:39 | 50.20890 | 7.09932 | 34969 ft | 478 kts | 99° |
| 2026-05-04 09:39 | 50.20610 | 7.15105 | 35025 ft | 477 kts | 99° |
| 2026-05-04 09:40 | 50.20052 | 7.25349 | 35027 ft | 477 kts | 99° |
| 2026-05-04 09:40 | 50.19107 | 7.35521 | 35022 ft | 470 kts | 110° |
| 2026-05-04 09:42 | 50.11307 | 7.74226 | 35007 ft | 469 kts | 112° |
| 2026-05-04 09:43 | 50.09325 | 7.83898 | 35010 ft | 469 kts | 112° |
| 2026-05-04 09:43 | 50.07676 | 7.91933 | 35019 ft | 469 kts | 112° |
| 2026-05-04 09:44 | 50.05361 | 8.03154 | 35024 ft | 469 kts | 112° |
| 2026-05-04 09:46 | 49.97652 | 8.40087 | 35041 ft | 468 kts | 112° |
| 2026-05-04 09:46 | 49.95256 | 8.51227 | 35022 ft | 466 kts | 116° |
| 2026-05-04 09:47 | 49.92817 | 8.58583 | 35021 ft | 460 kts | 124° |
| 2026-05-04 09:49 | 49.80096 | 8.92902 | 35013 ft | 460 kts | 124° |
| 2026-05-04 09:51 | 49.68895 | 9.22797 | 35013 ft | 460 kts | 124° |
| 2026-05-04 09:51 | 49.65677 | 9.31328 | 35017 ft | 460 kts | 125° |
| 2026-05-04 09:52 | 49.62433 | 9.39823 | 35017 ft | 458 kts | 128° |
| 2026-05-04 09:52 | 49.58466 | 9.47367 | 35013 ft | 452 kts | 136° |
| 2026-05-04 09:53 | 49.54333 | 9.54605 | 34765 ft | 453 kts | 136° |
| 2026-05-04 09:53 | 49.52255 | 9.58252 | 34522 ft | 454 kts | 136° |
| 2026-05-04 09:53 | 49.50174 | 9.61902 | 34281 ft | 454 kts | 136° |
| 2026-05-04 09:53 | 49.48085 | 9.65556 | 34038 ft | 455 kts | 136° |
| 2026-05-04 09:54 | 49.45993 | 9.69205 | 33765 ft | 455 kts | 136° |
| 2026-05-04 09:54 | 49.43895 | 9.72854 | 33488 ft | 456 kts | 136° |
| 2026-05-04 09:54 | 49.41790 | 9.76506 | 33213 ft | 457 kts | 136° |
| 2026-05-04 09:54 | 49.39712 | 9.80108 | 32494 ft | 458 kts | 136° |
| 2026-05-04 09:55 | 49.37579 | 9.83802 | 31325 ft | 465 kts | 135° |
| 2026-05-04 09:55 | 49.35435 | 9.87516 | 30359 ft | 465 kts | 135° |
| 2026-05-04 09:55 | 49.33282 | 9.91239 | 29168 ft | 468 kts | 135° |
| 2026-05-04 09:55 | 49.31153 | 9.94926 | 28689 ft | 455 kts | 135° |
| 2026-05-04 09:56 | 49.29065 | 9.98538 | 27971 ft | 450 kts | 135° |
| 2026-05-04 09:56 | 49.26999 | 10.02092 | 27294 ft | 445 kts | 135° |
| 2026-05-04 09:56 | 49.24948 | 10.05606 | 26625 ft | 440 kts | 135° |
| 2026-05-04 09:56 | 49.22913 | 10.09086 | 25974 ft | 436 kts | 135° |
| 2026-05-04 09:57 | 49.20921 | 10.12487 | 25326 ft | 433 kts | 135° |
| 2026-05-04 09:57 | 49.18921 | 10.15904 | 24671 ft | 430 kts | 135° |
| 2026-05-04 09:57 | 49.16930 | 10.19300 | 24036 ft | 427 kts | 135° |
| 2026-05-04 09:57 | 49.14955 | 10.22672 | 23370 ft | 425 kts | 135° |
| 2026-05-04 09:58 | 49.12988 | 10.25999 | 22745 ft | 420 kts | 135° |
| 2026-05-04 09:58 | 49.11005 | 10.29246 | 22181 ft | 415 kts | 136° |
| 2026-05-04 09:58 | 49.09025 | 10.32417 | 21631 ft | 411 kts | 136° |
| 2026-05-04 10:00 | 48.95663 | 10.53692 | 18079 ft | 388 kts | 136° |
| 2026-05-04 10:00 | 48.93806 | 10.56646 | 17556 ft | 384 kts | 136° |
| 2026-05-04 10:02 | 48.81174 | 10.76663 | 13824 ft | 370 kts | 136° |
| 2026-05-04 10:04 | 48.69048 | 10.95684 | 10464 ft | 333 kts | 136° |
| 2026-05-04 10:04 | 48.67464 | 10.98155 | 10326 ft | 321 kts | 136° |
| 2026-05-04 10:04 | 48.65939 | 11.00534 | 10212 ft | 310 kts | 137° |
| 2026-05-04 10:04 | 48.64490 | 11.02797 | 10092 ft | 298 kts | 137° |
| 2026-05-04 10:05 | 48.63064 | 11.05018 | 9907 ft | 291 kts | 138° |
| 2026-05-04 10:05 | 48.61657 | 11.07198 | 9583 ft | 290 kts | 136° |
| 2026-05-04 10:05 | 48.60249 | 11.09375 | 9235 ft | 290 kts | 136° |
| 2026-05-04 10:05 | 48.58845 | 11.11546 | 8907 ft | 287 kts | 136° |
| 2026-05-04 10:06 | 48.57359 | 11.13537 | 8476 ft | 286 kts | 147° |
| 2026-05-04 10:06 | 48.55723 | 11.15178 | 8231 ft | 280 kts | 148° |
| 2026-05-04 10:06 | 48.54114 | 11.16810 | 7908 ft | 277 kts | 147° |
| 2026-05-04 10:08 | 48.45101 | 11.27237 | 6196 ft | 270 kts | 140° |
| 2026-05-04 10:08 | 48.43665 | 11.29059 | 5943 ft | 270 kts | 139° |
| 2026-05-04 10:08 | 48.42223 | 11.30872 | 5677 ft | 269 kts | 140° |
| 2026-05-04 10:08 | 48.40811 | 11.32644 | 5416 ft | 266 kts | 140° |
| 2026-05-04 10:09 | 48.39382 | 11.34428 | 5159 ft | 266 kts | 139° |
| 2026-05-04 10:09 | 48.37965 | 11.36187 | 4983 ft | 260 kts | 139° |
| 2026-05-04 10:09 | 48.36609 | 11.37868 | 4996 ft | 248 kts | 139° |
| 2026-05-04 10:09 | 48.35301 | 11.39490 | 4990 ft | 243 kts | 140° |
| 2026-05-04 10:10 | 48.34153 | 11.41327 | 4991 ft | 242 kts | 117° |
| 2026-05-04 10:10 | 48.33700 | 11.43727 | 4996 ft | 240 kts | 89° |
| 2026-05-04 10:10 | 48.33852 | 11.46216 | 4995 ft | 238 kts | 84° |
| 2026-05-04 10:10 | 48.34055 | 11.48619 | 4984 ft | 225 kts | 83° |
| 2026-05-04 10:11 | 48.34241 | 11.50907 | 4841 ft | 225 kts | 83° |
| 2026-05-04 10:11 | 48.34428 | 11.53256 | 4559 ft | 228 kts | 82° |
| 2026-05-04 10:11 | 48.34621 | 11.55668 | 4229 ft | 237 kts | 82° |
| 2026-05-04 10:11 | 48.34816 | 11.58130 | 3922 ft | 236 kts | 83° |
| 2026-05-04 10:12 | 48.35008 | 11.60561 | 3619 ft | 230 kts | 83° |
| 2026-05-04 10:12 | 48.35193 | 11.62908 | 3333 ft | 224 kts | 82° |
| 2026-05-04 10:12 | 48.35372 | 11.65183 | 3022 ft | 211 kts | 83° |
| 2026-05-04 10:12 | 48.35536 | 11.67258 | 2786 ft | 193 kts | 83° |
| 2026-05-04 10:13 | 48.35682 | 11.69139 | 2517 ft | 171 kts | 83° |
| 2026-05-04 10:13 | 48.35815 | 11.70842 | 2300 ft | 159 kts | 83° |
| 2026-05-04 10:13 | 48.35940 | 11.72445 | 2089 ft | 150 kts | 83° |
| 2026-05-04 10:13 | 48.36058 | 11.73975 | 1884 ft | 144 kts | 84° |
| 2026-05-04 10:14 | 48.36177 | 11.75456 | 1670 ft | 142 kts | 85° |
| 2026-05-04 10:14 | 48.36288 | 11.76923 | 1524 ft | 141 kts | 84° |
| 2026-05-04 10:16 | 48.36390 | 11.80399 | 1477 ft | 6 kts | 113° |
| 2026-05-04 10:16 | 48.36373 | 11.80458 | 1479 ft | 7 kts | 113° |
| 2026-05-04 10:16 | 48.36347 | 11.80519 | 1485 ft | 7 kts | 144° |
| 2026-05-04 10:16 | 48.36294 | 11.80494 | 1484 ft | 10 kts | 238° |
| 2026-05-04 10:17 | 48.36284 | 11.80386 | 1485 ft | 11 kts | 264° |
| 2026-05-04 10:17 | 48.36276 | 11.80279 | 1479 ft | 10 kts | 263° |
| 2026-05-04 10:19 | 48.36201 | 11.79352 | 1485 ft | 11 kts | 252° |
| 2026-05-04 10:19 | 48.36142 | 11.79303 | 1485 ft | 9 kts | 173° |
| 2026-05-04 10:19 | 48.36077 | 11.79319 | 1472 ft | 9 kts | 171° |
| 2026-05-04 10:19 | 48.36002 | 11.79333 | 1481 ft | 12 kts | 173° |
| 2026-05-04 10:20 | 48.35918 | 11.79359 | 1475 ft | 13 kts | 156° |
| 2026-05-04 10:20 | 48.35836 | 11.79378 | 1485 ft | 11 kts | 206° |
| 2026-05-04 10:20 | 48.35818 | 11.79272 | 1476 ft | 9 kts | 265° |
| 2026-05-04 10:20 | 48.35814 | 11.79235 | 1477 ft | 1 kts | 262° |
| 2026-05-04 10:21 | 48.35814 | 11.79234 | 1477 ft | 0 kts | 261° |